Time;durP1;ratioP1;P1;durP2;ratioP2;P2;SDS_P1;SDS_P2;PMS_P1;PMS_P2;Temp;Humidity;BMP_temperature;BMP_pressure;BME280_temperature;BME280_humidity;BME280_pressure;Samples;Min_cycle;Max_cycle;Signal;HPM_P1;HPM_P2
2022/11/23 00:01:25;;;;;;;1.33;0.93;;;;;;;;;;4135712;28;20410;-42
2022/11/23 00:03:26;;;;;;;1.02;0.93;;;;;;;;;;4147689;28;20057;-42
2022/11/23 00:05:28;;;;;;;1.02;0.90;;;;;;;;;;4146825;28;20062;-43
2022/11/23 00:07:29;;;;;;;1.30;1.08;;;;;;;;;;4130553;28;20057;-43
2022/11/23 00:09:31;;;;;;;0.65;0.65;;;;;;;;;;4135197;28;20176;-44
2022/11/23 00:11:34;;;;;;;0.90;0.80;;;;;;;;;;4147561;28;20413;-42
2022/11/23 00:13:38;;;;;;;0.95;0.80;;;;;;;;;;4134625;28;20556;-42
2022/11/23 00:15:40;;;;;;;1.08;0.98;;;;;;;;;;4147227;28;20100;-42
2022/11/23 00:17:41;;;;;;;1.00;0.90;;;;;;;;;;4147613;28;20053;-42
2022/11/23 00:19:42;;;;;;;1.23;0.82;;;;;;;;;;4147019;28;20096;-42
2022/11/23 00:21:44;;;;;;;1.00;0.75;;;;;;;;;;4147432;28;20485;-42
2022/11/23 00:23:46;;;;;;;0.70;0.70;;;;;;;;;;4160681;28;20065;-45
2022/11/23 00:25:47;;;;;;;0.90;0.70;;;;;;;;;;4131121;28;20062;-43
2022/11/23 00:27:49;;;;;;;0.70;0.70;;;;;;;;;;4154373;28;20053;-42
2022/11/23 00:29:50;;;;;;;1.40;0.93;;;;;;;;;;4118621;28;20418;-42
2022/11/23 00:31:51;;;;;;;1.00;0.80;;;;;;;;;;4145080;28;20050;-43
2022/11/23 00:33:54;;;;;;;0.88;0.85;;;;;;;;;;4147201;28;20054;-43
2022/11/23 00:36:05;;;;;;;1.67;1.17;;;;;;;;;;4129293;28;20054;-42
2022/11/23 00:38:07;;;;;;;1.08;0.90;;;;;;;;;;4135405;28;20108;-43
2022/11/23 00:40:08;;;;;;;1.00;0.90;;;;;;;;;;4144063;28;20108;-42
2022/11/23 00:42:10;;;;;;;1.05;0.95;;;;;;;;;;4113875;28;20078;-43
2022/11/23 00:44:12;;;;;;;0.80;0.80;;;;;;;;;;4133791;28;20076;-45
2022/11/23 00:46:15;;;;;;;1.02;0.90;;;;;;;;;;4129565;28;20058;-44
2022/11/23 00:48:17;;;;;;;1.23;0.85;;;;;;;;;;4145672;28;20053;-42
2022/11/23 00:50:19;;;;;;;1.00;0.80;;;;;;;;;;4117672;28;20150;-43
2022/11/23 00:52:20;;;;;;;1.13;0.80;;;;;;;;;;4143137;28;20053;-42
2022/11/23 00:54:22;;;;;;;0.60;0.60;;;;;;;;;;4119124;28;20058;-42
2022/11/23 00:56:23;;;;;;;1.35;1.10;;;;;;;;;;4144021;28;20085;-42
2022/11/23 00:58:24;;;;;;;1.30;1.00;;;;;;;;;;4129447;28;20118;-42
2022/11/23 01:00:26;;;;;;;0.88;0.60;;;;;;;;;;4137397;28;20053;-43
2022/11/23 01:02:27;;;;;;;1.00;0.95;;;;;;;;;;4113487;28;20057;-43
2022/11/23 01:04:29;;;;;;;0.82;0.82;;;;;;;;;;4140104;28;20058;-42
2022/11/23 01:06:37;;;;;;;1.10;1.00;;;;;;;;;;4129410;28;20059;-42
2022/11/23 01:08:39;;;;;;;0.60;0.60;;;;;;;;;;4139043;28;20054;-42
2022/11/23 01:10:40;;;;;;;1.10;1.00;;;;;;;;;;4139759;28;20568;-41
2022/11/23 01:12:42;;;;;;;0.80;0.75;;;;;;;;;;4134237;28;20050;-43
2022/11/23 01:14:43;;;;;;;0.90;0.80;;;;;;;;;;4145469;28;20100;-42
2022/11/23 01:16:45;;;;;;;1.15;0.93;;;;;;;;;;4142318;28;20552;-42
2022/11/23 01:18:46;;;;;;;0.80;0.77;;;;;;;;;;4138222;28;20069;-43
2022/11/23 01:20:48;;;;;;;1.15;0.80;;;;;;;;;;4161385;28;20057;-44
2022/11/23 01:22:52;;;;;;;1.20;1.10;;;;;;;;;;4129340;28;20113;-42
2022/11/23 01:24:53;;;;;;;1.08;0.90;;;;;;;;;;4134493;28;20457;-42
2022/11/23 01:26:54;;;;;;;1.00;0.80;;;;;;;;;;4147147;28;20116;-42
2022/11/23 01:29:01;;;;;;;0.85;0.80;;;;;;;;;;4135956;28;20054;-43
2022/11/23 01:31:17;;;;;;;1.00;0.90;;;;;;;;;;4145024;28;20054;-42
2022/11/23 01:33:18;;;;;;;0.82;0.80;;;;;;;;;;4118924;28;20050;-42
2022/11/23 01:35:21;;;;;;;1.40;0.98;;;;;;;;;;4116512;28;20173;-42
2022/11/23 01:37:22;;;;;;;1.00;0.80;;;;;;;;;;4139050;28;20485;-42
2022/11/23 01:39:25;;;;;;;1.23;0.93;;;;;;;;;;4157864;28;20440;-42
2022/11/23 01:41:34;;;;;;;1.05;0.90;;;;;;;;;;4156629;28;20077;-46
2022/11/23 01:43:36;;;;;;;1.10;0.90;;;;;;;;;;4139701;28;20089;-42
2022/11/23 01:45:37;;;;;;;1.98;1.00;;;;;;;;;;4116849;28;20372;-44
2022/11/23 01:47:39;;;;;;;1.00;0.60;;;;;;;;;;4132259;28;20520;-42
2022/11/23 01:49:48;;;;;;;0.77;0.70;;;;;;;;;;4139398;28;20136;-43
2022/11/23 01:51:52;;;;;;;0.70;0.70;;;;;;;;;;4139872;28;20100;-42
2022/11/23 01:53:57;;;;;;;1.27;0.95;;;;;;;;;;4146540;28;20128;-43
2022/11/23 01:56:00;;;;;;;1.27;0.95;;;;;;;;;;4115939;28;20089;-42
2022/11/23 01:58:02;;;;;;;1.42;1.00;;;;;;;;;;4112902;28;20059;-43
2022/11/23 02:00:03;;;;;;;0.93;0.73;;;;;;;;;;4161628;28;20054;-43
2022/11/23 02:02:15;;;;;;;0.90;0.70;;;;;;;;;;4130228;28;20101;-43
2022/11/23 02:04:22;;;;;;;1.13;0.82;;;;;;;;;;4157870;28;20180;-44
2022/11/23 02:06:24;;;;;;;0.93;0.73;;;;;;;;;;4113098;28;20465;-42
2022/11/23 02:08:26;;;;;;;1.13;1.00;;;;;;;;;;4141198;28;20494;-42
2022/11/23 02:10:29;;;;;;;1.00;0.90;;;;;;;;;;4128557;28;20064;-43
2022/11/23 02:12:31;;;;;;;1.40;0.80;;;;;;;;;;4124967;28;20074;-44
2022/11/23 02:14:33;;;;;;;0.95;0.90;;;;;;;;;;4137350;28;20460;-42
2022/11/23 02:16:36;;;;;;;0.90;0.80;;;;;;;;;;4150908;28;20065;-44
2022/11/23 02:18:40;;;;;;;1.00;0.82;;;;;;;;;;4112560;28;20055;-42
2022/11/23 02:20:43;;;;;;;0.73;0.70;;;;;;;;;;4151237;28;20552;-44
2022/11/23 02:23:00;;;;;;;1.00;0.90;;;;;;;;;;4124833;28;20055;-43
2022/11/23 02:25:06;;;;;;;0.95;0.85;;;;;;;;;;4145130;28;20057;-45
2022/11/23 02:27:08;;;;;;;0.95;0.80;;;;;;;;;;4134646;28;20057;-42
2022/11/23 02:29:26;;;;;;;1.13;0.82;;;;;;;;;;4149015;28;20493;-43
2022/11/23 02:31:27;;;;;;;0.60;0.60;;;;;;;;;;4115644;28;20046;-43
2022/11/23 02:33:29;;;;;;;0.80;0.70;;;;;;;;;;4131763;28;20061;-44
2022/11/23 02:35:31;;;;;;;0.65;0.63;;;;;;;;;;4147676;28;20097;-42
2022/11/23 02:37:33;;;;;;;1.45;1.02;;;;;;;;;;4139080;28;20050;-42
2022/11/23 02:39:41;;;;;;;1.20;0.82;;;;;;;;;;4131582;28;20105;-42
2022/11/23 02:41:47;;;;;;;;;;;;;;;;;;4133515;28;20050;-42
2022/11/23 02:43:52;;;;;;;0.75;0.70;;;;;;;;;;4152815;28;19975;-44
2022/11/23 02:45:58;;;;;;;1.00;0.90;;;;;;;;;;4163917;28;20049;-43
2022/11/23 02:48:00;;;;;;;0.98;0.90;;;;;;;;;;4146819;28;20054;-43
2022/11/23 02:50:01;;;;;;;1.02;0.93;;;;;;;;;;4146768;28;20058;-43
2022/11/23 02:52:03;;;;;;;0.70;0.70;;;;;;;;;;4147403;28;20418;-43
2022/11/23 02:54:05;;;;;;;1.10;0.68;;;;;;;;;;4147656;28;20140;-43
2022/11/23 02:56:08;;;;;;;1.20;1.00;;;;;;;;;;4158960;28;20068;-42
2022/11/23 02:58:10;;;;;;;1.15;1.02;;;;;;;;;;4148277;28;20100;-43
2022/11/23 03:00:12;;;;;;;0.85;0.80;;;;;;;;;;4163715;28;20072;-43
2022/11/23 03:02:13;;;;;;;1.13;0.90;;;;;;;;;;4131193;28;20059;-43
2022/11/23 03:04:14;;;;;;;1.02;0.70;;;;;;;;;;4142984;28;20082;-42
2022/11/23 03:06:16;;;;;;;1.02;0.75;;;;;;;;;;4116802;28;20105;-42
2022/11/23 03:08:18;;;;;;;0.80;0.80;;;;;;;;;;4148444;28;20060;-42
2022/11/23 03:10:19;;;;;;;0.88;0.80;;;;;;;;;;4141184;28;20058;-43
2022/11/23 03:12:25;;;;;;;1.10;0.82;;;;;;;;;;4146999;28;20104;-43
2022/11/23 03:14:27;;;;;;;0.60;0.55;;;;;;;;;;4145260;28;20058;-44
2022/11/23 03:16:33;;;;;;;0.93;0.77;;;;;;;;;;4132344;28;20058;-42
2022/11/23 03:18:35;;;;;;;1.02;0.85;;;;;;;;;;4128756;28;20054;-42
2022/11/23 03:20:37;;;;;;;0.68;0.68;;;;;;;;;;4130320;28;20062;-42
2022/11/23 03:22:40;;;;;;;0.90;0.90;;;;;;;;;;4146723;28;20456;-44
2022/11/23 03:24:41;;;;;;;0.77;0.75;;;;;;;;;;4127441;28;20059;-42
2022/11/23 03:26:47;;;;;;;0.68;0.60;;;;;;;;;;4147189;28;20128;-42
2022/11/23 03:28:54;;;;;;;0.73;0.70;;;;;;;;;;4125559;28;20058;-42
2022/11/23 03:30:55;;;;;;;1.13;1.02;;;;;;;;;;4116403;28;20062;-42
2022/11/23 03:32:57;;;;;;;0.95;0.77;;;;;;;;;;4150772;28;20064;-43
2022/11/23 03:34:59;;;;;;;1.10;0.90;;;;;;;;;;4114252;28;20086;-42
2022/11/23 03:37:01;;;;;;;1.08;0.75;;;;;;;;;;4130805;28;20120;-42
2022/11/23 03:39:03;;;;;;;0.82;0.80;;;;;;;;;;4144918;28;20058;-45
2022/11/23 03:41:23;;;;;;;1.02;0.80;;;;;;;;;;4137484;28;20054;-42
2022/11/23 03:43:27;;;;;;;1.00;0.77;;;;;;;;;;4130911;28;20104;-43
2022/11/23 03:45:28;;;;;;;1.10;0.90;;;;;;;;;;4148078;28;20053;-42
2022/11/23 03:47:30;;;;;;;0.82;0.60;;;;;;;;;;4147482;28;20057;-44
2022/11/23 03:49:31;;;;;;;1.08;0.98;;;;;;;;;;4138550;28;20062;-42
2022/11/23 03:51:32;;;;;;;0.93;0.80;;;;;;;;;;4147672;28;20115;-43
2022/11/23 03:53:34;;;;;;;0.60;0.57;;;;;;;;;;4147755;28;20490;-43
2022/11/23 03:55:35;;;;;;;0.98;0.80;;;;;;;;;;4134192;28;20109;-42
2022/11/23 03:57:38;;;;;;;0.75;0.75;;;;;;;;;;4146926;28;20053;-43
2022/11/23 03:59:40;;;;;;;0.85;0.73;;;;;;;;;;4130293;28;20446;-43
2022/11/23 04:01:42;;;;;;;0.65;0.60;;;;;;;;;;4119767;28;20084;-44
2022/11/23 04:03:51;;;;;;;1.00;0.85;;;;;;;;;;4099336;28;20110;-43
2022/11/23 04:06:02;;;;;;;0.90;0.80;;;;;;;;;;4124198;28;20094;-42
2022/11/23 04:08:33;;;;;;;0.90;0.73;;;;;;;;;;4134133;28;20058;-42
2022/11/23 04:10:35;;;;;;;1.08;0.77;;;;;;;;;;4100258;28;20137;-43
2022/11/23 04:12:52;;;;;;;0.93;0.85;;;;;;;;;;4122242;28;20137;-42
2022/11/23 04:14:53;;;;;;;1.15;0.95;;;;;;;;;;4124042;28;20058;-43
2022/11/23 04:16:55;;;;;;;0.63;0.63;;;;;;;;;;4113063;28;20054;-42
2022/11/23 04:18:57;;;;;;;0.77;0.75;;;;;;;;;;4119310;28;20059;-43
2022/11/23 04:20:58;;;;;;;0.90;0.73;;;;;;;;;;4129601;28;20112;-43
2022/11/23 04:22:59;;;;;;;1.00;0.70;;;;;;;;;;4131418;28;20058;-45
2022/11/23 04:25:02;;;;;;;0.88;0.60;;;;;;;;;;4085241;29;20059;-42
2022/11/23 04:27:04;;;;;;;0.88;0.82;;;;;;;;;;4115067;28;20054;-43
2022/11/23 04:29:05;;;;;;;0.57;0.57;;;;;;;;;;4121155;28;20486;-42
2022/11/23 04:31:08;;;;;;;0.75;0.63;;;;;;;;;;4120320;28;20133;-42
2022/11/23 04:33:20;;;;;;;0.77;0.65;;;;;;;;;;4111660;28;20059;-44
2022/11/23 04:35:21;;;;;;;0.80;0.77;;;;;;;;;;4130589;28;20494;-45
2022/11/23 04:37:25;;;;;;;0.75;0.70;;;;;;;;;;4138859;28;20062;-43
2022/11/23 04:39:27;;;;;;;0.82;0.60;;;;;;;;;;4113725;28;20059;-43
2022/11/23 04:41:57;;;;;;;1.17;0.93;;;;;;;;;;4121200;28;20050;-42
2022/11/23 04:43:58;;;;;;;0.85;0.75;;;;;;;;;;4146266;28;20061;-44
2022/11/23 04:45:59;;;;;;;0.60;0.60;;;;;;;;;;4131056;28;20073;-43
2022/11/23 04:48:05;;;;;;;1.00;0.70;;;;;;;;;;4113601;28;20054;-42
2022/11/23 04:50:07;;;;;;;0.90;0.70;;;;;;;;;;4097433;28;20058;-44
2022/11/23 04:52:09;;;;;;;0.60;0.55;;;;;;;;;;4105060;28;20059;-40
2022/11/23 04:54:17;;;;;;;0.80;0.65;;;;;;;;;;4127466;28;20058;-42
2022/11/23 04:56:24;;;;;;;0.93;0.70;;;;;;;;;;4099569;28;20181;-40
2022/11/23 04:58:26;;;;;;;0.60;0.60;;;;;;;;;;4126295;28;20058;-41
2022/11/23 05:00:31;;;;;;;0.68;0.68;;;;;;;;;;4113378;28;20090;-40
2022/11/23 05:02:34;;;;;;;1.00;0.80;;;;;;;;;;4110566;28;20494;-40
2022/11/23 05:04:54;;;;;;;0.52;0.45;;;;;;;;;;4113010;28;20054;-43
2022/11/23 05:07:01;;;;;;;0.47;0.47;;;;;;;;;;4113334;28;20051;-41
2022/11/23 05:09:05;;;;;;;0.63;0.57;;;;;;;;;;4117684;28;20050;-41
2022/11/23 05:11:16;;;;;;;0.65;0.65;;;;;;;;;;4117362;28;20050;-41
2022/11/23 05:13:17;;;;;;;0.80;0.80;;;;;;;;;;4129647;28;20054;-41
2022/11/23 05:15:20;;;;;;;0.70;0.70;;;;;;;;;;4139514;28;20053;-41
2022/11/23 05:17:21;;;;;;;0.80;0.70;;;;;;;;;;4116452;28;20054;-41
2022/11/23 05:19:25;;;;;;;0.75;0.57;;;;;;;;;;4144997;28;20066;-41
2022/11/23 05:21:27;;;;;;;0.80;0.70;;;;;;;;;;4135903;28;20049;-41
2022/11/23 05:23:29;;;;;;;0.70;0.70;;;;;;;;;;4129442;28;20058;-40
2022/11/23 05:25:32;;;;;;;0.77;0.70;;;;;;;;;;4129245;28;20055;-42
2022/11/23 05:27:37;;;;;;;0.60;0.50;;;;;;;;;;4116567;28;20086;-41
2022/11/23 05:29:38;;;;;;;0.90;0.70;;;;;;;;;;4140183;28;20054;-41
2022/11/23 05:31:41;;;;;;;0.98;0.85;;;;;;;;;;4140100;28;20408;-42
2022/11/23 05:33:44;;;;;;;0.80;0.70;;;;;;;;;;4129181;28;20050;-41
2022/11/23 05:35:45;;;;;;;1.00;0.90;;;;;;;;;;4128416;28;20415;-43
2022/11/23 05:37:46;;;;;;;0.77;0.70;;;;;;;;;;4131005;28;20178;-42
2022/11/23 05:39:48;;;;;;;0.93;0.80;;;;;;;;;;4140239;28;20062;-44
2022/11/23 05:41:50;;;;;;;0.68;0.60;;;;;;;;;;4145406;28;20080;-42
2022/11/23 05:44:05;;;;;;;0.60;0.60;;;;;;;;;;4145297;28;20172;-45
2022/11/23 05:46:07;;;;;;;0.75;0.57;;;;;;;;;;4146306;28;20058;-42
2022/11/23 05:48:10;;;;;;;0.90;0.68;;;;;;;;;;4129054;28;20093;-42
2022/11/23 05:50:31;;;;;;;0.90;0.70;;;;;;;;;;4116782;28;20564;-42
2022/11/23 05:52:56;;;;;;;0.57;0.47;;;;;;;;;;4127470;28;20062;-43
2022/11/23 05:54:58;;;;;;;1.08;0.60;;;;;;;;;;4147172;28;20053;-42
2022/11/23 05:56:59;;;;;;;0.77;0.68;;;;;;;;;;4148342;28;20077;-41
2022/11/23 05:59:11;;;;;;;1.05;0.65;;;;;;;;;;4129379;28;20054;-43
2022/11/23 06:01:14;;;;;;;0.73;0.50;;;;;;;;;;4137416;28;20560;-42
2022/11/23 06:03:16;;;;;;;1.13;0.65;;;;;;;;;;4140212;28;20058;-43
2022/11/23 06:05:18;;;;;;;0.60;0.52;;;;;;;;;;4147196;28;20053;-43
2022/11/23 06:07:23;;;;;;;1.25;0.70;;;;;;;;;;4147460;28;20058;-42
2022/11/23 06:09:39;;;;;;;0.60;0.57;;;;;;;;;;4146243;28;20069;-42
2022/11/23 06:11:43;;;;;;;0.88;0.63;;;;;;;;;;4128570;28;20054;-42
2022/11/23 06:13:48;;;;;;;1.15;0.75;;;;;;;;;;4144379;28;20540;-43
2022/11/23 06:15:51;;;;;;;0.95;0.47;;;;;;;;;;4113931;28;20067;-43
2022/11/23 06:18:01;;;;;;;0.68;0.60;;;;;;;;;;4121935;28;20164;-44
2022/11/23 06:20:10;;;;;;;0.95;0.50;;;;;;;;;;4111540;28;20071;-42
2022/11/23 06:22:17;;;;;;;0.95;0.50;;;;;;;;;;4149693;28;20056;-43
2022/11/23 06:24:27;;;;;;;;;;;;;;;;;;4146318;28;20060;-43
2022/11/23 06:26:52;;;;;;;0.43;0.40;;;;;;;;;;4145529;28;19937;-43
2022/11/23 06:28:54;;;;;;;0.82;0.55;;;;;;;;;;4129925;28;20062;-43
2022/11/23 06:31:00;;;;;;;0.52;0.52;;;;;;;;;;4145822;28;20732;-42
2022/11/23 06:33:03;;;;;;;1.15;0.55;;;;;;;;;;4113521;28;20411;-43
2022/11/23 06:35:06;;;;;;;0.80;0.50;;;;;;;;;;4143443;28;20426;-42
2022/11/23 06:37:12;;;;;;;0.82;0.70;;;;;;;;;;4129214;28;20062;-42
2022/11/23 06:39:14;;;;;;;0.82;0.50;;;;;;;;;;4129756;28;20054;-43
2022/11/23 06:41:18;;;;;;;0.30;0.30;;;;;;;;;;4124741;28;20124;-43
2022/11/23 06:43:21;;;;;;;0.73;0.40;;;;;;;;;;4145798;28;20449;-43
2022/11/23 06:45:24;;;;;;;1.02;0.60;;;;;;;;;;4117660;28;20572;-43
2022/11/23 06:47:28;;;;;;;0.60;0.60;;;;;;;;;;4154066;28;20486;-42
2022/11/23 06:49:30;;;;;;;1.58;0.60;;;;;;;;;;4123911;28;20069;-42
2022/11/23 06:51:47;;;;;;;0.40;0.28;;;;;;;;;;4161901;28;20057;-42
2022/11/23 06:53:49;;;;;;;0.50;0.38;;;;;;;;;;4129352;28;20066;-42
2022/11/23 06:55:52;;;;;;;0.32;0.30;;;;;;;;;;4161540;28;20053;-41
2022/11/23 06:57:55;;;;;;;0.50;0.50;;;;;;;;;;4113265;28;20446;-43
2022/11/23 06:59:57;;;;;;;0.80;0.65;;;;;;;;;;4115640;28;20062;-42
2022/11/23 07:02:07;;;;;;;0.28;0.28;;;;;;;;;;4129415;28;20438;-44
2022/11/23 07:04:10;;;;;;;0.40;0.40;;;;;;;;;;4129703;28;20065;-42
2022/11/23 07:06:20;;;;;;;;;;;;;;;;;;4132246;28;20061;-43
2022/11/23 07:08:21;;;;;;;2.40;0.40;;;;;;;;;;4128555;28;19934;-43
2022/11/23 07:10:24;;;;;;;1.17;0.57;;;;;;;;;;4140763;28;20061;-42
2022/11/23 07:12:30;;;;;;;0.47;0.47;;;;;;;;;;4121176;28;20046;-41
2022/11/23 07:14:35;;;;;;;0.43;0.40;;;;;;;;;;4128115;28;20061;-42
2022/11/23 07:16:36;;;;;;;0.40;0.30;;;;;;;;;;4142058;28;20137;-42
2022/11/23 07:18:38;;;;;;;0.20;0.20;;;;;;;;;;4139304;28;20058;-43
2022/11/23 07:20:41;;;;;;;0.40;0.30;;;;;;;;;;4158540;28;20049;-42
2022/11/23 07:22:42;;;;;;;0.60;0.45;;;;;;;;;;4138898;28;20545;-42
2022/11/23 07:24:44;;;;;;;0.22;0.22;;;;;;;;;;4138086;28;20054;-42
2022/11/23 07:26:46;;;;;;;0.30;0.30;;;;;;;;;;4129552;28;20054;-43
2022/11/23 07:28:48;;;;;;;0.50;0.40;;;;;;;;;;4116456;28;20063;-42
2022/11/23 07:30:51;;;;;;;0.40;0.32;;;;;;;;;;4140063;28;20675;-42
2022/11/23 07:33:07;;;;;;;0.30;0.30;;;;;;;;;;4108959;28;20450;-43
2022/11/23 07:35:11;;;;;;;0.30;0.30;;;;;;;;;;4124146;28;20063;-41
2022/11/23 07:37:14;;;;;;;0.30;0.30;;;;;;;;;;4121817;28;20678;-43
2022/11/23 07:39:16;;;;;;;0.32;0.32;;;;;;;;;;4126846;28;20085;-43
2022/11/23 07:41:18;;;;;;;0.30;0.30;;;;;;;;;;4138983;28;20099;-42
2022/11/23 07:43:55;;;;;;;0.38;0.30;;;;;;;;;;4133495;28;20061;-41
2022/11/23 07:45:59;;;;;;;0.32;0.30;;;;;;;;;;4132764;28;20453;-43
2022/11/23 07:48:06;;;;;;;0.20;0.20;;;;;;;;;;4127249;28;20112;-45
2022/11/23 07:50:08;;;;;;;0.20;0.20;;;;;;;;;;4134057;28;20069;-43
2022/11/23 07:52:10;;;;;;;0.40;0.38;;;;;;;;;;4140382;28;20057;-43
2022/11/23 07:54:11;;;;;;;0.50;0.40;;;;;;;;;;4139540;28;20053;-42
2022/11/23 07:56:13;;;;;;;0.20;0.20;;;;;;;;;;4152167;28;20571;-44
2022/11/23 07:58:14;;;;;;;0.32;0.30;;;;;;;;;;4139295;28;20054;-42
2022/11/23 08:00:16;;;;;;;0.70;0.30;;;;;;;;;;4136367;28;20088;-44
2022/11/23 08:02:18;;;;;;;0.38;0.30;;;;;;;;;;4129199;28;20084;-42
2022/11/23 08:04:20;;;;;;;0.20;0.20;;;;;;;;;;4112271;28;20484;-44
2022/11/23 08:06:21;;;;;;;0.55;0.35;;;;;;;;;;4130336;28;20058;-42
2022/11/23 08:08:22;;;;;;;0.80;0.77;;;;;;;;;;4136103;28;20049;-42
2022/11/23 08:10:28;;;;;;;0.22;0.22;;;;;;;;;;4138355;28;20104;-43
2022/11/23 08:12:29;;;;;;;0.82;0.40;;;;;;;;;;4138457;28;20485;-43
2022/11/23 08:14:30;;;;;;;1.45;0.40;;;;;;;;;;4131287;28;20058;-44
2022/11/23 08:16:32;;;;;;;0.40;0.40;;;;;;;;;;4134900;28;20054;-45
2022/11/23 08:18:33;;;;;;;0.60;0.40;;;;;;;;;;4121354;28;20065;-44
2022/11/23 08:20:35;;;;;;;0.47;0.30;;;;;;;;;;4142318;28;20057;-44
2022/11/23 08:22:37;;;;;;;0.70;0.30;;;;;;;;;;4134518;28;20061;-43
2022/11/23 08:24:38;;;;;;;0.50;0.30;;;;;;;;;;4135281;28;20107;-42
2022/11/23 08:26:39;;;;;;;0.47;0.30;;;;;;;;;;4119108;28;20128;-43
2022/11/23 08:28:40;;;;;;;0.70;0.38;;;;;;;;;;4147885;28;20162;-44
2022/11/23 08:30:42;;;;;;;0.50;0.45;;;;;;;;;;4130681;28;20141;-45
2022/11/23 08:32:43;;;;;;;0.63;0.40;;;;;;;;;;4137040;28;20061;-42
2022/11/23 08:34:45;;;;;;;0.40;0.40;;;;;;;;;;4132235;28;20484;-41
2022/11/23 08:36:49;;;;;;;0.43;0.38;;;;;;;;;;4136479;28;20062;-43
2022/11/23 08:38:51;;;;;;;0.63;0.50;;;;;;;;;;4131775;28;20061;-42
2022/11/23 08:41:00;;;;;;;0.30;0.30;;;;;;;;;;4134229;28;20058;-42
2022/11/23 08:43:01;;;;;;;0.20;0.20;;;;;;;;;;4121478;28;20101;-45
2022/11/23 08:45:04;;;;;;;0.40;0.40;;;;;;;;;;4137954;28;20205;-44
2022/11/23 08:47:06;;;;;;;0.20;0.20;;;;;;;;;;4136402;28;20062;-42
2022/11/23 08:49:07;;;;;;;0.40;0.40;;;;;;;;;;4102049;28;20128;-43
2022/11/23 08:51:08;;;;;;;0.38;0.30;;;;;;;;;;4115469;28;20054;-42
2022/11/23 08:53:10;;;;;;;0.40;0.40;;;;;;;;;;4134726;28;20136;-42
2022/11/23 08:55:11;;;;;;;1.38;0.50;;;;;;;;;;4127756;28;20149;-42
2022/11/23 08:57:14;;;;;;;0.80;0.50;;;;;;;;;;4130693;28;20507;-43
2022/11/23 08:59:19;;;;;;;0.40;0.40;;;;;;;;;;4130267;28;20098;-41
2022/11/23 09:01:20;;;;;;;0.60;0.45;;;;;;;;;;4125080;28;20064;-47
2022/11/23 09:03:22;;;;;;;0.43;0.43;;;;;;;;;;4133456;28;20113;-42
2022/11/23 09:05:23;;;;;;;0.50;0.40;;;;;;;;;;4138732;28;20064;-43
2022/11/23 09:07:25;;;;;;;0.65;0.40;;;;;;;;;;4134159;28;20771;-43
2022/11/23 09:09:26;;;;;;;0.85;0.63;;;;;;;;;;4145400;28;20054;-43
2022/11/23 09:11:27;;;;;;;1.10;0.60;;;;;;;;;;4133914;28;20062;-43
2022/11/23 09:13:28;;;;;;;0.93;0.35;;;;;;;;;;4130762;28;20096;-43
2022/11/23 09:15:30;;;;;;;0.52;0.40;;;;;;;;;;4128992;28;20054;-45
2022/11/23 09:17:31;;;;;;;1.35;0.70;;;;;;;;;;4128652;28;20137;-43
2022/11/23 09:19:33;;;;;;;0.68;0.40;;;;;;;;;;4132056;28;20054;-42
2022/11/23 09:21:37;;;;;;;0.47;0.30;;;;;;;;;;4129580;28;20049;-43
2022/11/23 09:23:39;;;;;;;0.30;0.30;;;;;;;;;;4133883;28;20153;-43
2022/11/23 09:25:42;;;;;;;1.33;0.50;;;;;;;;;;4113248;28;20065;-43
2022/11/23 09:27:44;;;;;;;0.65;0.43;;;;;;;;;;4133175;28;20514;-43
2022/11/23 09:29:45;;;;;;;0.98;0.40;;;;;;;;;;4138457;28;20054;-42
2022/11/23 09:31:46;;;;;;;1.00;0.43;;;;;;;;;;4131515;28;20468;-43
2022/11/23 09:33:51;;;;;;;0.82;0.50;;;;;;;;;;4133504;28;20066;-44
2022/11/23 09:36:00;;;;;;;1.52;0.50;;;;;;;;;;4134820;28;20054;-42
2022/11/23 09:38:01;;;;;;;0.80;0.52;;;;;;;;;;4136566;28;20077;-45
2022/11/23 09:40:03;;;;;;;0.40;0.30;;;;;;;;;;4137174;28;20064;-42
2022/11/23 09:42:25;;;;;;;0.35;0.30;;;;;;;;;;4136651;28;20606;-43
2022/11/23 09:44:48;;;;;;;0.30;0.30;;;;;;;;;;4130990;28;20717;-44
2022/11/23 09:47:11;;;;;;;0.60;0.45;;;;;;;;;;4132241;28;20469;-43
2022/11/23 09:49:18;;;;;;;0.28;0.28;;;;;;;;;;4136164;28;20089;-44
2022/11/23 09:51:22;;;;;;;0.50;0.47;;;;;;;;;;4140198;28;20135;-43
2022/11/23 09:53:37;;;;;;;0.40;0.40;;;;;;;;;;4148028;28;20057;-43
2022/11/23 09:55:45;;;;;;;0.40;0.40;;;;;;;;;;4113008;28;20054;-42
2022/11/23 09:57:47;;;;;;;0.40;0.30;;;;;;;;;;4115828;28;20059;-43
2022/11/23 09:59:56;;;;;;;0.68;0.40;;;;;;;;;;4118149;28;20054;-44
2022/11/23 10:01:59;;;;;;;1.15;0.35;;;;;;;;;;4128201;28;20058;-44
2022/11/23 10:04:03;;;;;;;0.63;0.50;;;;;;;;;;4137209;28;20066;-43
2022/11/23 10:06:24;;;;;;;0.70;0.60;;;;;;;;;;4134621;28;20426;-43
2022/11/23 10:08:44;;;;;;;1.00;0.47;;;;;;;;;;4148657;28;20446;-47
2022/11/23 10:10:53;;;;;;;0.65;0.35;;;;;;;;;;4115518;28;20589;-45
2022/11/23 10:13:00;;;;;;;1.10;0.60;;;;;;;;;;4116174;28;20097;-45
2022/11/23 10:15:17;;;;;;;0.65;0.50;;;;;;;;;;4151251;28;20103;-44
2022/11/23 10:17:25;;;;;;;0.80;0.50;;;;;;;;;;4146656;28;20683;-46
2022/11/23 10:19:29;;;;;;;1.55;0.63;;;;;;;;;;4153436;28;20092;-43
2022/11/23 10:21:38;;;;;;;0.52;0.40;;;;;;;;;;4132231;28;20058;-43
2022/11/23 10:24:01;;;;;;;0.47;0.40;;;;;;;;;;4146079;28;20058;-45
2022/11/23 10:26:03;;;;;;;0.50;0.40;;;;;;;;;;4133038;28;20050;-44
2022/11/23 10:28:16;;;;;;;0.57;0.30;;;;;;;;;;4136016;28;20054;-43
2022/11/23 10:30:19;;;;;;;0.60;0.57;;;;;;;;;;4111277;28;20082;-44
2022/11/23 10:32:31;;;;;;;0.73;0.50;;;;;;;;;;4130009;28;20083;-43
2022/11/23 10:34:57;;;;;;;0.60;0.40;;;;;;;;;;4137250;28;20409;-42
2022/11/23 10:36:59;;;;;;;0.50;0.40;;;;;;;;;;4133097;28;20053;-42
2022/11/23 10:39:01;;;;;;;0.80;0.50;;;;;;;;;;4136597;28;20054;-44
2022/11/23 10:41:10;;;;;;;1.05;0.32;;;;;;;;;;4121777;28;20046;-42
2022/11/23 10:43:19;;;;;;;0.73;0.52;;;;;;;;;;4131760;28;20099;-44
2022/11/23 10:45:26;;;;;;;0.60;0.43;;;;;;;;;;4106937;28;20054;-43
2022/11/23 10:47:57;;;;;;;0.35;0.30;;;;;;;;;;4104440;28;20055;-42
2022/11/23 10:49:59;;;;;;;0.77;0.40;;;;;;;;;;4134106;28;20045;-44
2022/11/23 10:52:08;;;;;;;0.68;0.52;;;;;;;;;;4137350;28;20056;-42
2022/11/23 10:54:29;;;;;;;0.60;0.40;;;;;;;;;;4115788;28;20066;-43
2022/11/23 10:56:32;;;;;;;0.40;0.32;;;;;;;;;;4116224;28;21070;-43
2022/11/23 10:58:42;;;;;;;0.50;0.40;;;;;;;;;;4135970;28;20069;-43
2022/11/23 11:00:43;;;;;;;0.38;0.38;;;;;;;;;;4132096;28;20125;-43
2022/11/23 11:02:50;;;;;;;0.73;0.45;;;;;;;;;;4117550;28;20080;-46
2022/11/23 11:05:12;;;;;;;0.57;0.50;;;;;;;;;;4122568;28;20062;-43
2022/11/23 11:07:37;;;;;;;0.30;0.20;;;;;;;;;;4103573;28;20070;-43
2022/11/23 11:09:38;;;;;;;0.40;0.30;;;;;;;;;;4119822;28;21337;-45
2022/11/23 11:11:46;;;;;;;0.47;0.30;;;;;;;;;;4135757;28;20104;-43
2022/11/23 11:13:48;;;;;;;0.50;0.35;;;;;;;;;;4151646;28;20056;-43
2022/11/23 11:15:57;;;;;;;2.15;0.50;;;;;;;;;;4115946;28;20058;-43
2022/11/23 11:17:58;;;;;;;0.45;0.40;;;;;;;;;;4137886;28;20177;-43
2022/11/23 11:20:27;;;;;;;3.13;0.60;;;;;;;;;;4140977;28;20054;-44
2022/11/23 11:22:35;;;;;;;2.35;0.50;;;;;;;;;;4106514;28;20055;-43
2022/11/23 11:24:42;;;;;;;0.70;0.50;;;;;;;;;;4121929;28;20058;-42
2022/11/23 11:26:57;;;;;;;0.82;0.60;;;;;;;;;;4140214;28;20422;-43
2022/11/23 11:29:06;;;;;;;0.93;0.50;;;;;;;;;;4125081;28;20159;-42
2022/11/23 11:31:45;;;;;;;0.95;0.60;;;;;;;;;;4140453;28;20493;-44
2022/11/23 11:34:17;;;;;;;1.13;0.60;;;;;;;;;;4139669;28;20076;-42
2022/11/23 11:36:19;;;;;;;1.08;0.63;;;;;;;;;;4150205;28;20061;-45
2022/11/23 11:38:32;;;;;;;1.02;0.50;;;;;;;;;;4120859;28;20435;-43
2022/11/23 11:40:38;;;;;;;0.85;0.60;;;;;;;;;;4141448;28;20053;-44
2022/11/23 11:42:47;;;;;;;0.88;0.57;;;;;;;;;;4137422;28;20097;-44
2022/11/23 11:44:50;;;;;;;1.35;0.60;;;;;;;;;;4152121;28;20119;-43
2022/11/23 11:46:57;;;;;;;0.73;0.57;;;;;;;;;;4120705;28;20046;-44
2022/11/23 11:49:12;;;;;;;2.00;0.55;;;;;;;;;;4130630;28;20134;-44
2022/11/23 11:51:21;;;;;;;0.80;0.50;;;;;;;;;;4139378;28;20497;-43
2022/11/23 11:53:24;;;;;;;;;;;;;;;;;;4123458;28;20099;-42
2022/11/23 11:55:32;;;;;;;0.88;0.40;;;;;;;;;;4145956;28;20450;-44
2022/11/23 11:57:45;;;;;;;0.80;0.40;;;;;;;;;;4155012;28;20083;-43
2022/11/23 11:59:49;;;;;;;0.70;0.70;;;;;;;;;;4118956;28;20101;-43
2022/11/23 12:01:50;;;;;;;0.80;0.80;;;;;;;;;;4136128;28;20171;-45
2022/11/23 12:03:58;;;;;;;0.88;0.47;;;;;;;;;;4133909;28;20100;-43
2022/11/23 12:06:07;;;;;;;0.70;0.57;;;;;;;;;;4135795;28;20165;-43
2022/11/23 12:08:17;;;;;;;0.70;0.52;;;;;;;;;;4139711;28;20061;-42
2022/11/23 12:10:27;;;;;;;1.77;0.90;;;;;;;;;;4121260;28;20054;-42
2022/11/23 12:12:30;;;;;;;0.60;0.50;;;;;;;;;;4148104;28;20081;-43
2022/11/23 12:14:32;;;;;;;0.60;0.50;;;;;;;;;;4113659;28;20058;-42
2022/11/23 12:16:41;;;;;;;1.85;0.47;;;;;;;;;;4116949;28;20109;-40
2022/11/23 12:18:58;;;;;;;;;;;;;;;;;;4134461;28;20045;-42
2022/11/23 12:21:07;;;;;;;1.58;0.60;;;;;;;;;;4129936;28;19936;-43
2022/11/23 12:23:20;;;;;;;0.80;0.70;;;;;;;;;;4116639;28;21494;-41
2022/11/23 12:25:24;;;;;;;0.88;0.60;;;;;;;;;;4122441;28;20874;-42
2022/11/23 12:27:47;;;;;;;0.57;0.50;;;;;;;;;;4128919;28;20128;-42
2022/11/23 12:30:17;;;;;;;0.90;0.43;;;;;;;;;;4129207;28;20057;-42
2022/11/23 12:32:34;;;;;;;0.73;0.40;;;;;;;;;;4130654;28;20050;-44
2022/11/23 12:34:45;;;;;;;2.40;0.70;;;;;;;;;;4128778;28;20141;-44